Time;durP1;ratioP1;P1;durP2;ratioP2;P2;SDS_P1;SDS_P2;PMS_P1;PMS_P2;Temp;Humidity;BMP_temperature;BMP_pressure;BME280_temperature;BME280_humidity;BME280_pressure;Samples;Min_cycle;Max_cycle;Signal;HPM_P1;HPM_P2
2021/01/09 00:00:58;;;;;;;23.20;4.22;;;1.30;99.90;;;;;;5092245;28;20034;-86
2021/01/09 00:03:24;;;;;;;16.85;4.30;;;1.30;99.90;;;;;;5094343;28;20098;-86
2021/01/09 00:05:51;;;;;;;35.63;4.25;;;1.20;99.90;;;;;;5085585;28;20023;-86
2021/01/09 00:08:17;;;;;;;25.23;4.00;;;1.10;99.90;;;;;;5093777;28;20020;-86
2021/01/09 00:10:43;;;;;;;34.40;3.88;;;1.10;99.90;;;;;;5089909;28;20572;-87
2021/01/09 00:13:08;;;;;;;21.50;3.22;;;1.10;99.90;;;;;;5088073;28;20115;-87
2021/01/09 00:15:34;;;;;;;35.60;3.45;;;1.10;99.90;;;;;;5090442;28;20163;-86
2021/01/09 00:17:59;;;;;;;34.20;4.05;;;1.20;99.90;;;;;;5092452;28;20415;-86
2021/01/09 00:20:25;;;;;;;27.70;3.97;;;1.20;99.90;;;;;;5084972;28;20024;-86
2021/01/09 00:22:50;;;;;;;11.40;3.90;;;1.20;99.90;;;;;;5086873;28;20025;-87
2021/01/09 00:25:16;;;;;;;11.18;3.58;;;1.20;99.90;;;;;;5090020;28;20023;-86
2021/01/09 00:27:42;;;;;;;6.13;3.33;;;1.20;99.90;;;;;;5082832;28;20365;-86
2021/01/09 00:30:09;;;;;;;7.88;5.05;;;1.20;99.90;;;;;;5087836;28;20111;-87
2021/01/09 00:32:34;;;;;;;9.02;4.63;;;1.20;99.90;;;;;;5084865;28;20028;-86
2021/01/09 00:35:00;;;;;;;9.48;5.75;;;1.20;99.90;;;;;;5087613;28;20031;-86
2021/01/09 00:37:26;;;;;;;10.98;6.70;;;1.20;99.90;;;;;;5092198;28;20027;-86
2021/01/09 00:39:52;;;;;;;12.48;8.10;;;1.20;99.90;;;;;;5081175;28;20020;-87
2021/01/09 00:42:18;;;;;;;12.43;7.05;;;1.20;99.90;;;;;;5091452;28;20088;-87
2021/01/09 00:44:44;;;;;;;12.35;7.63;;;1.20;99.90;;;;;;5091810;28;20039;-87
2021/01/09 00:47:09;;;;;;;9.48;6.22;;;1.20;99.90;;;;;;5085874;28;20024;-87
2021/01/09 00:49:35;;;;;;;11.75;7.43;;;1.20;99.90;;;;;;5092731;28;20479;-86
2021/01/09 00:52:00;;;;;;;10.25;6.65;;;1.10;99.90;;;;;;5091518;28;20024;-86
2021/01/09 00:54:26;;;;;;;11.48;7.13;;;1.20;99.90;;;;;;5078698;28;20084;-87
2021/01/09 00:56:52;;;;;;;12.00;7.93;;;1.10;99.90;;;;;;5073634;28;20016;-87
2021/01/09 00:59:18;;;;;;;12.23;7.00;;;1.10;99.90;;;;;;5074091;28;20031;-87
2021/01/09 01:01:44;;;;;;;10.70;7.22;;;1.10;99.90;;;;;;5054901;28;20016;-88
2021/01/09 01:04:09;;;;;;;11.73;7.30;;;1.10;99.90;;;;;;5073033;28;20171;-86
2021/01/09 01:06:35;;;;;;;10.85;5.97;;;1.10;99.90;;;;;;5053326;28;20063;-86
2021/01/09 01:09:00;;;;;;;13.90;7.10;;;1.20;99.90;;;;;;5053237;28;20024;-87
2021/01/09 01:11:28;;;;;;;13.45;6.53;;;1.20;99.90;;;;;;5053582;28;20020;-87
2021/01/09 01:13:55;;;;;;;12.48;7.32;;;1.20;99.90;;;;;;5054420;28;20028;-87
2021/01/09 01:16:21;;;;;;;13.43;8.25;;;1.20;99.90;;;;;;5036578;28;20017;-87
2021/01/09 01:18:47;;;;;;;13.55;7.80;;;1.10;99.90;;;;;;5054720;28;20111;-87
2021/01/09 01:21:13;;;;;;;11.75;7.43;;;1.10;99.90;;;;;;5072787;28;20075;-88
2021/01/09 01:23:38;;;;;;;15.98;9.50;;;1.10;99.90;;;;;;5055894;28;20417;-87
2021/01/09 01:26:04;;;;;;;16.38;8.95;;;1.10;99.90;;;;;;5052986;28;20024;-88
2021/01/09 01:28:30;;;;;;;13.52;8.00;;;1.10;99.90;;;;;;5073762;28;20055;-87
2021/01/09 01:30:55;;;;;;;15.20;8.25;;;1.00;99.90;;;;;;5052151;28;20504;-87
2021/01/09 01:33:21;;;;;;;12.48;7.93;;;1.00;99.90;;;;;;5073435;28;20113;-88
2021/01/09 01:35:50;;;;;;;11.02;6.88;;;1.00;99.90;;;;;;5071700;28;20499;-88
2021/01/09 01:38:15;;;;;;;11.65;6.53;;;1.10;99.90;;;;;;5070302;28;20060;-87
2021/01/09 01:40:41;;;;;;;9.10;5.60;;;1.10;99.90;;;;;;5056252;28;20024;-88
2021/01/09 01:43:14;;;;;;;9.15;4.70;;;1.10;99.90;;;;;;5054448;28;20023;-89
2021/01/09 01:45:40;;;;;;;8.73;5.43;;;1.10;99.90;;;;;;5056306;28;20081;-88
2021/01/09 01:48:07;;;;;;;10.32;5.28;;;1.10;99.90;;;;;;5073043;28;20024;-89
2021/01/09 01:50:33;;;;;;;9.90;5.57;;;1.00;99.90;;;;;;5050208;28;20107;-89
2021/01/09 01:53:00;;;;;;;11.02;5.15;;;1.00;99.90;;;;;;5051861;28;20131;-89
2021/01/09 01:55:26;;;;;;;9.98;5.25;;;1.00;99.90;;;;;;5053037;28;20027;-88
2021/01/09 01:57:52;;;;;;;8.57;4.47;;;1.00;99.90;;;;;;5055584;28;20021;-89
2021/01/09 02:00:24;;;;;;;9.25;5.18;;;1.00;99.90;;;;;;5070469;28;20024;-89
2021/01/09 02:02:51;;;;;;;8.18;4.72;;;1.00;99.90;;;;;;5046692;28;20480;-89
2021/01/09 02:05:20;;;;;;;8.13;4.80;;;0.90;99.90;;;;;;5072646;28;20028;-88
2021/01/09 02:07:46;;;;;;;8.13;4.93;;;0.90;99.90;;;;;;5073294;28;20495;-89
2021/01/09 02:10:13;;;;;;;8.85;5.07;;;0.90;99.90;;;;;;5050433;28;20016;-89
2021/01/09 02:12:48;;;;;;;9.00;4.95;;;0.90;99.90;;;;;;5050551;28;20506;-89
2021/01/09 02:15:16;;;;;;;7.43;4.95;;;0.90;99.90;;;;;;5054124;28;20025;-89
2021/01/09 02:17:44;;;;;;;10.07;4.72;;;0.80;99.90;;;;;;5076561;28;20070;-89
2021/01/09 02:20:10;;;;;;;7.30;4.20;;;0.80;99.90;;;;;;5055695;28;20020;-89
2021/01/09 02:22:43;;;;;;;7.65;4.57;;;0.80;99.90;;;;;;5072482;28;20025;-88
2021/01/09 02:25:10;;;;;;;7.00;4.15;;;0.80;99.90;;;;;;5040166;28;20480;-90
2021/01/09 02:27:36;;;;;;;7.75;5.22;;;0.70;99.90;;;;;;5050309;28;20031;-89
2021/01/09 02:30:23;;;;;;;7.75;4.57;;;0.70;99.90;;;;;;5068613;28;20024;-88
2021/01/09 02:32:58;;;;;;;8.07;4.78;;;0.70;99.90;;;;;;5053015;28;20039;-89
2021/01/09 02:35:26;;;;;;;8.07;4.57;;;0.70;99.90;;;;;;5047404;28;20056;-89
2021/01/09 02:37:53;;;;;;;9.25;4.97;;;0.60;99.90;;;;;;5049960;28;20012;-88
2021/01/09 02:40:19;;;;;;;7.75;4.65;;;0.70;99.90;;;;;;5051350;28;20031;-89
2021/01/09 02:42:45;;;;;;;8.55;4.43;;;0.60;99.90;;;;;;5053711;28;20111;-89
2021/01/09 02:45:11;;;;;;;9.50;4.53;;;0.60;99.90;;;;;;5048602;28;20021;-89
2021/01/09 02:47:36;;;;;;;8.27;4.88;;;0.70;99.90;;;;;;5073004;28;20029;-88
2021/01/09 02:50:06;;;;;;;8.60;4.03;;;0.60;99.90;;;;;;5054369;28;20021;-88
2021/01/09 02:52:32;;;;;;;17.25;4.32;;;0.60;99.90;;;;;;5072737;28;20027;-89
2021/01/09 02:54:57;;;;;;;14.63;4.07;;;0.60;99.90;;;;;;5089779;28;20040;-89
2021/01/09 02:57:23;;;;;;;11.65;3.75;;;0.50;99.90;;;;;;5093656;28;20101;-88
2021/01/09 02:59:48;;;;;;;18.73;3.95;;;0.50;99.90;;;;;;5087417;28;20016;-89
2021/01/09 03:02:14;;;;;;;19.02;3.28;;;0.50;99.90;;;;;;5088504;28;20103;-89
2021/01/09 03:04:39;;;;;;;18.67;3.65;;;0.50;99.90;;;;;;5094842;28;20035;-89
2021/01/09 03:07:05;;;;;;;21.92;3.35;;;0.50;99.90;;;;;;5093203;28;20028;-89
2021/01/09 03:09:30;;;;;;;25.83;4.05;;;0.50;99.90;;;;;;5094269;28;20102;-89
2021/01/09 03:11:56;;;;;;;25.00;3.53;;;0.40;99.90;;;;;;5096877;28;20035;-89
2021/01/09 03:14:21;;;;;;;32.40;4.22;;;0.40;99.90;;;;;;5082990;28;20095;-89
2021/01/09 03:16:47;;;;;;;33.92;4.07;;;0.30;99.90;;;;;;5090011;28;20012;-89
2021/01/09 03:19:12;;;;;;;15.30;4.85;;;0.30;99.90;;;;;;5093357;28;20464;-89
2021/01/09 03:21:38;;;;;;;12.68;5.38;;;0.30;99.90;;;;;;5094743;28;20021;-89
2021/01/09 03:24:04;;;;;;;14.10;5.47;;;0.30;99.90;;;;;;5094930;28;20028;-89
2021/01/09 03:26:30;;;;;;;10.75;5.10;;;0.30;99.90;;;;;;5092690;28;20107;-89
2021/01/09 03:28:56;;;;;;;10.90;5.40;;;0.20;99.90;;;;;;5090240;28;20020;-89
2021/01/09 03:31:22;;;;;;;8.27;5.50;;;0.20;99.90;;;;;;5094302;28;20028;-88
2021/01/09 03:33:47;;;;;;;11.25;5.32;;;0.20;99.90;;;;;;5093031;28;20016;-89
2021/01/09 03:36:13;;;;;;;9.75;4.97;;;0.20;99.90;;;;;;5087973;28;20016;-91
2021/01/09 03:38:38;;;;;;;10.32;5.57;;;0.30;99.90;;;;;;5086474;28;20013;-89
2021/01/09 03:41:04;;;;;;;8.40;4.45;;;0.20;99.90;;;;;;5094816;28;20471;-89
2021/01/09 03:43:29;;;;;;;15.50;5.40;;;0.20;99.90;;;;;;5091322;28;20046;-89
2021/01/09 03:45:55;;;;;;;14.10;4.85;;;0.20;99.90;;;;;;5094922;28;20069;-89
2021/01/09 03:48:20;;;;;;;9.02;4.50;;;0.10;99.90;;;;;;5091432;28;20066;-88
2021/01/09 03:50:46;;;;;;;7.22;3.60;;;0.10;99.90;;;;;;5094397;28;20538;-89
2021/01/09 03:53:11;;;;;;;10.93;4.15;;;0.10;99.90;;;;;;5089645;28;20044;-89
2021/01/09 03:55:37;;;;;;;8.07;4.15;;;0.10;99.90;;;;;;5095858;28;20039;-89
2021/01/09 03:58:03;;;;;;;9.00;4.15;;;0.10;99.90;;;;;;5089627;28;20022;-89
2021/01/09 04:00:28;;;;;;;6.55;3.72;;;0.10;99.90;;;;;;5086965;28;20017;-89
2021/01/09 04:02:54;;;;;;;8.77;4.15;;;0.10;99.90;;;;;;5090254;28;20020;-89
2021/01/09 04:05:19;;;;;;;8.90;4.28;;;0.10;99.90;;;;;;5092957;28;20016;-88
2021/01/09 04:07:45;;;;;;;6.10;3.40;;;0.10;99.90;;;;;;5089942;28;20499;-89
2021/01/09 04:10:11;;;;;;;7.05;4.03;;;0.10;99.90;;;;;;5094813;28;20149;-89
2021/01/09 04:12:36;;;;;;;9.20;4.50;;;0.10;99.90;;;;;;5095164;28;20032;-89
2021/01/09 04:15:03;;;;;;;8.68;4.03;;;0.10;99.90;;;;;;5085888;28;20021;-89
2021/01/09 04:17:29;;;;;;;12.00;4.82;;;0.10;99.90;;;;;;5083299;28;20027;-89
2021/01/09 04:19:54;;;;;;;24.98;4.43;;;0.10;99.90;;;;;;5089675;28;20020;-88
2021/01/09 04:22:20;;;;;;;13.00;4.97;;;0.10;99.90;;;;;;5083296;28;20012;-89
2021/01/09 04:24:45;;;;;;;14.18;4.53;;;0.10;99.90;;;;;;5092747;28;20368;-89
2021/01/09 04:27:11;;;;;;;14.02;4.68;;;0.10;99.90;;;;;;5094622;28;20025;-89
2021/01/09 04:29:36;;;;;;;10.75;4.10;;;0.10;99.90;;;;;;5087586;28;20024;-89
2021/01/09 04:32:03;;;;;;;11.98;4.45;;;0.00;99.90;;;;;;5087344;28;20497;-89
2021/01/09 04:34:28;;;;;;;9.25;4.10;;;0.00;99.90;;;;;;5095512;28;20407;-89
2021/01/09 04:36:54;;;;;;;7.72;4.15;;;0.00;99.90;;;;;;5091721;28;20024;-89
2021/01/09 04:39:20;;;;;;;9.63;5.15;;;0.00;99.90;;;;;;5095286;28;20085;-89
2021/01/09 04:41:45;;;;;;;8.63;4.25;;;0.00;99.90;;;;;;5092683;28;20016;-89
2021/01/09 04:44:12;;;;;;;9.57;4.88;;;0.00;99.90;;;;;;5085631;28;20020;-89
2021/01/09 04:46:51;;;;;;;6.97;4.35;;;-0.10;99.90;;;;;;5091746;28;20391;-89
2021/01/09 04:49:19;;;;;;;7.50;4.40;;;-0.10;99.90;;;;;;5091714;28;20028;-90
2021/01/09 04:51:45;;;;;;;8.52;3.75;;;-0.10;99.90;;;;;;5093774;28;20054;-89
2021/01/09 04:54:17;;;;;;;6.90;4.10;;;-0.10;99.90;;;;;;5090747;28;20069;-90
2021/01/09 04:56:44;;;;;;;8.68;3.63;;;-0.10;99.90;;;;;;5088107;28;20021;-89
2021/01/09 04:59:14;;;;;;;12.60;5.30;;;-0.10;99.90;;;;;;5092147;28;20020;-89
2021/01/09 05:01:48;;;;;;;9.65;5.05;;;-0.10;99.90;;;;;;5090739;28;20027;-89
2021/01/09 05:04:15;;;;;;;10.73;5.43;;;0.00;99.90;;;;;;5084215;28;20028;-89
2021/01/09 05:06:41;;;;;;;12.43;5.75;;;0.00;99.90;;;;;;5093018;28;20419;-89
2021/01/09 05:09:09;;;;;;;16.92;4.57;;;0.00;99.90;;;;;;5089254;28;20024;-89
2021/01/09 05:11:36;;;;;;;20.50;5.00;;;0.00;99.90;;;;;;5093751;28;20035;-89
2021/01/09 05:14:06;;;;;;;9.75;4.60;;;0.00;99.90;;;;;;5093144;28;20027;-89
2021/01/09 05:16:32;;;;;;;15.40;4.82;;;0.00;99.90;;;;;;5091107;28;20103;-89
2021/01/09 05:18:58;;;;;;;18.60;5.03;;;0.00;99.90;;;;;;5083139;28;20027;-90
2021/01/09 05:21:26;;;;;;;13.02;5.07;;;0.00;99.90;;;;;;5085254;28;20387;-89
2021/01/09 05:24:04;;;;;;;13.60;4.63;;;0.00;99.90;;;;;;5089485;28;20116;-89
2021/01/09 05:26:30;;;;;;;8.52;3.97;;;0.00;99.90;;;;;;5079199;28;20021;-89
2021/01/09 05:28:58;;;;;;;10.77;3.95;;;0.00;99.90;;;;;;5087230;28;20074;-89
2021/01/09 05:31:25;;;;;;;9.75;3.92;;;-0.10;99.90;;;;;;5093916;28;20028;-89
2021/01/09 05:33:51;;;;;;;17.05;4.50;;;-0.10;99.90;;;;;;5089197;28;20053;-89
2021/01/09 05:36:18;;;;;;;15.40;3.90;;;-0.10;99.90;;;;;;5092913;28;20525;-90
2021/01/09 05:38:45;;;;;;;13.30;4.82;;;-0.10;99.90;;;;;;5092256;28;20031;-89
2021/01/09 05:41:13;;;;;;;17.52;4.13;;;-0.10;99.90;;;;;;5090989;28;20020;-90
2021/01/09 05:43:39;;;;;;;10.02;4.20;;;-0.10;99.90;;;;;;5087698;28;20020;-90
2021/01/09 05:46:06;;;;;;;11.77;4.22;;;-0.10;99.90;;;;;;5092958;28;20024;-90
2021/01/09 05:48:33;;;;;;;12.02;4.25;;;0.00;99.90;;;;;;5090042;28;20529;-89
2021/01/09 05:51:02;;;;;;;16.85;4.53;;;0.00;99.90;;;;;;5085701;28;20021;-89
2021/01/09 05:53:42;;;;;;;15.60;3.83;;;0.00;99.90;;;;;;5089016;28;20079;-90
2021/01/09 05:56:10;;;;;;;6.80;3.83;;;0.00;99.90;;;;;;5093385;28;20050;-89
2021/01/09 05:58:36;;;;;;;11.70;3.67;;;0.00;99.90;;;;;;5092784;28;20498;-89
2021/01/09 06:01:10;;;;;;;9.98;3.88;;;-0.10;99.90;;;;;;5088104;28;20171;-89
2021/01/09 06:03:44;;;;;;;10.13;3.92;;;-0.10;99.90;;;;;;5087391;28;20502;-89
2021/01/09 06:06:31;;;;;;;8.05;3.70;;;-0.10;99.90;;;;;;5087838;28;20024;-90
2021/01/09 06:09:03;;;;;;;8.63;3.75;;;-0.20;99.90;;;;;;5091768;28;20031;-89
2021/01/09 06:11:35;;;;;;;7.25;3.33;;;-0.20;99.90;;;;;;5093294;28;20020;-89
2021/01/09 06:14:02;;;;;;;5.40;3.22;;;-0.20;99.90;;;;;;5092805;28;20097;-89
2021/01/09 06:16:33;;;;;;;6.28;3.35;;;-0.20;99.90;;;;;;5093196;28;20012;-89
2021/01/09 06:18:59;;;;;;;8.48;3.65;;;-0.20;99.90;;;;;;5088521;28;20020;-89
2021/01/09 06:21:26;;;;;;;11.10;3.75;;;-0.30;99.90;;;;;;5093633;28;20066;-89
2021/01/09 06:23:54;;;;;;;6.63;3.33;;;-0.30;99.90;;;;;;5092286;28;20020;-89
2021/01/09 06:26:20;;;;;;;7.22;4.00;;;-0.30;99.90;;;;;;5073962;28;20537;-90
2021/01/09 06:28:50;;;;;;;7.38;3.10;;;-0.40;99.90;;;;;;5072058;28;20116;-90
2021/01/09 06:31:20;;;;;;;5.43;3.17;;;-0.40;99.90;;;;;;5075923;28;20017;-89
2021/01/09 06:33:50;;;;;;;9.60;2.95;;;-0.40;99.90;;;;;;5080771;28;20035;-89
2021/01/09 06:36:18;;;;;;;4.50;2.88;;;-0.40;99.90;;;;;;5083561;28;20020;-90
2021/01/09 06:38:46;;;;;;;5.97;3.53;;;-0.40;99.90;;;;;;5088904;28;20097;-89
2021/01/09 06:41:15;;;;;;;5.85;3.28;;;-0.40;99.90;;;;;;5092719;28;20027;-89
2021/01/09 06:43:46;;;;;;;5.20;2.85;;;-0.40;99.90;;;;;;5092633;28;20043;-89
2021/01/09 06:46:24;;;;;;;5.53;3.38;;;-0.40;99.90;;;;;;5092817;28;20112;-90
2021/01/09 06:48:49;;;;;;;6.18;3.83;;;-0.40;99.90;;;;;;5092770;28;20028;-90
2021/01/09 06:51:34;;;;;;;6.10;3.75;;;-0.50;99.90;;;;;;5092667;28;20031;-89
2021/01/09 06:54:14;;;;;;;11.57;4.10;;;-0.60;99.90;;;;;;5090085;28;21283;-89
2021/01/09 06:56:59;;;;;;;12.85;3.90;;;-0.60;99.90;;;;;;5093041;28;20380;-89
2021/01/09 06:59:41;;;;;;;9.13;3.58;;;-0.70;99.90;;;;;;5093366;28;20552;-89
2021/01/09 07:02:18;;;;;;;12.13;3.38;;;-0.70;99.90;;;;;;5085265;28;20100;-89
2021/01/09 07:05:06;;;;;;;7.63;4.25;;;-0.70;99.90;;;;;;5090713;28;20025;-89
2021/01/09 07:07:54;;;;;;;6.75;3.58;;;-0.70;99.90;;;;;;5083674;28;20023;-90
2021/01/09 07:10:28;;;;;;;5.20;3.13;;;-0.70;99.90;;;;;;5075022;28;20066;-89
2021/01/09 07:13:15;;;;;;;5.50;3.40;;;-0.70;99.90;;;;;;5073376;28;20024;-89
2021/01/09 07:15:41;;;;;;;4.43;2.90;;;-0.70;99.90;;;;;;5073534;28;20021;-89
2021/01/09 07:18:07;;;;;;;6.85;2.90;;;-0.70;99.90;;;;;;5072439;28;20024;-89
2021/01/09 07:20:38;;;;;;;10.57;4.13;;;-0.70;99.90;;;;;;5073225;28;20046;-90
2021/01/09 07:23:10;;;;;;;8.88;4.10;;;-0.70;99.90;;;;;;5072540;28;20107;-88
2021/01/09 07:25:40;;;;;;;8.65;4.90;;;-0.70;99.90;;;;;;5086867;28;20039;-89
2021/01/09 07:28:22;;;;;;;5.88;3.92;;;-0.70;99.90;;;;;;5093676;28;20024;-89
2021/01/09 07:31:04;;;;;;;7.45;4.38;;;-0.70;99.90;;;;;;5092205;28;20016;-89
2021/01/09 07:33:32;;;;;;;6.15;3.55;;;-0.70;99.90;;;;;;5092634;28;20025;-90
2021/01/09 07:35:58;;;;;;;5.68;3.30;;;-0.70;99.90;;;;;;5089811;28;20490;-89
2021/01/09 07:38:24;;;;;;;8.07;3.83;;;-0.70;99.90;;;;;;5084549;28;20054;-89
2021/01/09 07:40:54;;;;;;;9.50;3.92;;;-0.80;99.90;;;;;;5085529;28;20263;-89
2021/01/09 07:43:33;;;;;;;10.50;4.93;;;-0.80;99.90;;;;;;5084375;28;20062;-89
2021/01/09 07:45:59;;;;;;;12.73;4.65;;;-0.80;99.90;;;;;;5084603;28;20028;-89
2021/01/09 07:48:33;;;;;;;8.52;3.90;;;-0.80;99.90;;;;;;5078294;28;20032;-89
2021/01/09 07:50:59;;;;;;;6.20;3.78;;;-0.80;99.90;;;;;;5081477;28;20020;-89
2021/01/09 07:53:27;;;;;;;7.00;3.50;;;-0.80;99.90;;;;;;5083898;28;20119;-89
2021/01/09 07:55:53;;;;;;;6.80;3.80;;;-0.80;99.90;;;;;;5087841;28;20028;-89
2021/01/09 07:58:38;;;;;;;5.80;3.75;;;-0.80;99.90;;;;;;5095607;28;20027;-89
2021/01/09 08:01:04;;;;;;;4.90;2.97;;;-0.80;99.90;;;;;;5095180;28;20027;-89
2021/01/09 08:03:32;;;;;;;5.97;3.08;;;-0.80;99.90;;;;;;5095472;28;20023;-89
2021/01/09 08:05:58;;;;;;;6.20;3.38;;;-0.70;99.90;;;;;;5084572;28;20051;-89
2021/01/09 08:08:25;;;;;;;7.05;3.65;;;-0.70;99.90;;;;;;5076230;28;20027;-89
2021/01/09 08:10:50;;;;;;;7.40;4.10;;;-0.60;99.90;;;;;;5074964;28;20119;-89
2021/01/09 08:13:17;;;;;;;5.53;3.67;;;-0.60;99.90;;;;;;5074915;28;20108;-89
2021/01/09 08:15:43;;;;;;;7.03;4.35;;;-0.60;99.90;;;;;;5074942;28;20025;-89
2021/01/09 08:18:10;;;;;;;10.48;5.05;;;-0.50;99.90;;;;;;5075200;28;20012;-89
2021/01/09 08:20:35;;;;;;;8.18;4.82;;;-0.50;99.90;;;;;;5087771;28;20053;-89
2021/01/09 08:23:02;;;;;;;9.50;5.43;;;-0.50;99.90;;;;;;5086124;28;20024;-89
2021/01/09 08:25:34;;;;;;;10.20;5.97;;;-0.40;99.90;;;;;;5082809;28;20039;-89
2021/01/09 08:28:01;;;;;;;14.07;6.50;;;-0.40;99.90;;;;;;5090609;28;20118;-89
2021/01/09 08:30:31;;;;;;;12.75;6.82;;;-0.50;99.90;;;;;;5078081;28;20083;-89
2021/01/09 08:33:06;;;;;;;12.13;5.47;;;-0.50;99.90;;;;;;5082223;28;20077;-89
2021/01/09 08:35:33;;;;;;;8.95;5.50;;;-0.40;99.90;;;;;;5083439;28;20058;-89
2021/01/09 08:38:00;;;;;;;8.15;5.03;;;-0.40;99.90;;;;;;5090038;28;20051;-89
2021/01/09 08:40:26;;;;;;;7.45;5.03;;;-0.30;99.90;;;;;;5084147;28;20025;-89
2021/01/09 08:42:59;;;;;;;7.65;4.82;;;-0.30;99.90;;;;;;5089901;28;20035;-89
2021/01/09 08:45:46;;;;;;;8.38;4.78;;;-0.20;99.90;;;;;;5082808;28;20031;-89
2021/01/09 08:48:18;;;;;;;6.03;3.92;;;-0.10;99.90;;;;;;5085498;28;20025;-90
2021/01/09 08:51:04;;;;;;;7.35;4.25;;;0.00;99.90;;;;;;5088664;28;20024;-90
2021/01/09 08:53:45;;;;;;;6.15;4.05;;;0.10;99.90;;;;;;5101392;28;20509;-90
2021/01/09 08:56:10;;;;;;;6.80;3.65;;;0.20;99.90;;;;;;5083729;28;20055;-90
2021/01/09 08:58:38;;;;;;;6.82;4.20;;;0.20;99.90;;;;;;5074326;28;20020;-90
2021/01/09 09:01:07;;;;;;;6.68;4.38;;;0.30;99.90;;;;;;5073943;28;20480;-90
2021/01/09 09:03:36;;;;;;;6.07;4.30;;;0.40;99.90;;;;;;5073854;28;20387;-90
2021/01/09 09:06:09;;;;;;;6.75;4.03;;;0.50;99.90;;;;;;5079607;28;20387;-90
2021/01/09 09:08:35;;;;;;;6.22;3.58;;;0.60;99.90;;;;;;5084551;28;20390;-90
2021/01/09 09:11:04;;;;;;;7.63;4.63;;;0.60;99.90;;;;;;5085708;28;20016;-90
2021/01/09 09:13:30;;;;;;;6.65;4.05;;;0.70;99.90;;;;;;5081981;28;20483;-90
2021/01/09 09:15:56;;;;;;;6.60;5.07;;;0.70;99.90;;;;;;5073889;28;20552;-90
2021/01/09 09:18:22;;;;;;;8.23;6.30;;;0.70;99.90;;;;;;5075039;28;20025;-89
2021/01/09 09:20:52;;;;;;;10.35;5.90;;;0.80;99.90;;;;;;5073677;28;20032;-90
2021/01/09 09:23:22;;;;;;;7.15;5.40;;;0.80;99.90;;;;;;5085775;28;20035;-90
2021/01/09 09:26:05;;;;;;;6.55;4.80;;;0.80;99.90;;;;;;5095611;28;20127;-90
2021/01/09 09:28:30;;;;;;;8.73;5.55;;;0.90;99.90;;;;;;5093850;28;20027;-89
2021/01/09 09:30:56;;;;;;;11.25;5.95;;;0.80;99.90;;;;;;5097677;28;20016;-89
2021/01/09 09:33:24;;;;;;;9.63;6.28;;;0.90;99.90;;;;;;5094779;28;20028;-90
2021/01/09 09:35:49;;;;;;;9.77;6.53;;;0.90;99.90;;;;;;5093557;28;20058;-90
2021/01/09 09:38:25;;;;;;;8.93;6.25;;;0.90;99.90;;;;;;5078155;28;20031;-89
2021/01/09 09:40:51;;;;;;;8.68;5.28;;;1.00;99.90;;;;;;5073282;28;20361;-89
2021/01/09 09:43:18;;;;;;;9.40;6.32;;;1.00;99.90;;;;;;5076221;28;20115;-89
2021/01/09 09:46:01;;;;;;;11.70;7.30;;;1.00;99.90;;;;;;5084009;28;20024;-88
2021/01/09 09:48:35;;;;;;;12.18;7.10;;;1.00;99.90;;;;;;5086947;28;20023;-88
2021/01/09 09:51:08;;;;;;;10.77;6.60;;;1.00;99.90;;;;;;5085838;28;20479;-88
2021/01/09 09:53:36;;;;;;;14.48;8.45;;;0.90;99.90;;;;;;5090146;28;20051;-88
2021/01/09 09:56:18;;;;;;;11.95;7.60;;;0.90;99.90;;;;;;5083890;28;20032;-88
2021/01/09 09:58:45;;;;;;;12.90;8.25;;;1.00;99.90;;;;;;5073001;28;20024;-87
2021/01/09 10:01:15;;;;;;;12.30;9.55;;;0.90;99.90;;;;;;5083833;28;20376;-87
2021/01/09 10:03:40;;;;;;;16.17;11.13;;;1.00;99.90;;;;;;5092207;28;20028;-86
2021/01/09 10:06:06;;;;;;;18.52;10.52;;;1.00;99.90;;;;;;5081557;28;20032;-87
2021/01/09 10:08:31;;;;;;;13.07;9.35;;;1.20;99.90;;;;;;5073128;28;20024;-86
2021/01/09 10:10:57;;;;;;;20.40;10.60;;;1.40;99.90;;;;;;5071618;28;20048;-85
2021/01/09 10:13:27;;;;;;;17.20;10.15;;;1.50;99.90;;;;;;5073158;28;20067;-85
2021/01/09 10:15:56;;;;;;;17.85;10.25;;;1.60;99.90;;;;;;5072972;28;20049;-85
2021/01/09 10:18:21;;;;;;;15.63;10.85;;;1.60;99.90;;;;;;5072771;28;20353;-84
2021/01/09 10:20:47;;;;;;;15.15;10.38;;;1.70;99.90;;;;;;5072846;28;20047;-84
2021/01/09 10:23:12;;;;;;;14.77;9.90;;;1.70;99.90;;;;;;5071401;28;20067;-84
2021/01/09 10:25:38;;;;;;;15.55;9.52;;;1.60;99.90;;;;;;5071573;28;20472;-83
2021/01/09 10:28:06;;;;;;;13.90;9.43;;;1.60;99.90;;;;;;5084218;28;20092;-84
2021/01/09 10:30:32;;;;;;;13.52;9.70;;;1.50;99.90;;;;;;5080339;28;20024;-83
2021/01/09 10:32:57;;;;;;;13.40;8.63;;;1.60;99.90;;;;;;5076001;28;20082;-83
2021/01/09 10:35:23;;;;;;;12.68;8.57;;;1.70;99.90;;;;;;5072555;28;20031;-83
2021/01/09 10:37:49;;;;;;;13.63;8.85;;;2.00;99.90;;;;;;5071119;28;20024;-83
2021/01/09 10:40:15;;;;;;;11.75;8.05;;;2.30;99.90;;;;;;5072964;28;20028;-83
2021/01/09 10:42:40;;;;;;;11.35;7.60;;;2.70;99.90;;;;;;5079021;28;20020;-83
2021/01/09 10:45:06;;;;;;;13.02;7.57;;;2.80;99.90;;;;;;5077841;28;20025;-82
2021/01/09 10:47:32;;;;;;;10.90;7.07;;;2.90;99.90;;;;;;5077966;28;20020;-82
2021/01/09 10:49:58;;;;;;;12.18;7.65;;;3.00;99.90;;;;;;5081421;28;20025;-82
2021/01/09 10:52:24;;;;;;;12.32;7.30;;;3.00;99.90;;;;;;5084632;28;20027;-82
2021/01/09 10:54:49;;;;;;;10.23;6.60;;;3.10;99.90;;;;;;5075789;28;20063;-82
2021/01/09 10:57:15;;;;;;;8.80;6.05;;;3.40;99.90;;;;;;5078988;28;20058;-82
2021/01/09 10:59:41;;;;;;;9.60;6.00;;;3.90;99.90;;;;;;5073172;28;20052;-82
2021/01/09 11:02:07;;;;;;;7.13;5.35;;;4.50;99.90;;;;;;5068871;28;20471;-82
2021/01/09 11:04:32;;;;;;;10.63;5.88;;;5.30;99.90;;;;;;5069343;28;20025;-82
2021/01/09 11:06:58;;;;;;;7.90;4.88;;;5.10;99.90;;;;;;5089661;28;20512;-82
2021/01/09 11:09:25;;;;;;;9.98;5.10;;;4.70;99.90;;;;;;5090788;28;20562;-82
2021/01/09 11:11:50;;;;;;;8.85;4.75;;;4.50;99.90;;;;;;5091293;28;20066;-82
2021/01/09 11:14:16;;;;;;;7.38;4.57;;;4.40;99.90;;;;;;5092356;28;20024;-82
2021/01/09 11:16:41;;;;;;;6.45;4.85;;;4.30;99.90;;;;;;5095026;28;20046;-82
2021/01/09 11:19:08;;;;;;;8.23;5.72;;;4.80;99.90;;;;;;5095064;28;20026;-83
2021/01/09 11:21:34;;;;;;;8.75;4.97;;;5.40;99.90;;;;;;5099271;28;20077;-82
2021/01/09 11:24:00;;;;;;;11.35;5.68;;;5.40;99.90;;;;;;5075444;28;20020;-84
2021/01/09 11:26:26;;;;;;;8.65;4.93;;;5.70;99.90;;;;;;5074496;28;20031;-82
2021/01/09 11:28:52;;;;;;;6.38;3.95;;;6.20;99.90;;;;;;5074479;28;20036;-82
2021/01/09 11:31:19;;;;;;;10.00;4.18;;;6.80;99.90;;;;;;5076777;28;20029;-82
2021/01/09 11:33:45;;;;;;;4.68;3.10;;;7.10;99.30;;;;;;5077869;28;20074;-82
2021/01/09 11:36:11;;;;;;;5.50;3.28;;;7.20;99.30;;;;;;5081534;28;20020;-83
2021/01/09 11:38:37;;;;;;;3.90;2.28;;;7.20;99.30;;;;;;5079726;28;20488;-83
2021/01/09 11:41:02;;;;;;;3.80;2.63;;;7.30;99.80;;;;;;5074190;28;20029;-83
2021/01/09 11:43:29;;;;;;;6.82;3.40;;;7.40;99.80;;;;;;5074511;28;20047;-84
2021/01/09 11:45:56;;;;;;;8.80;3.78;;;7.40;99.70;;;;;;5074173;28;20446;-84
2021/01/09 11:48:21;;;;;;;6.53;2.83;;;7.50;99.30;;;;;;5077001;28;20090;-83
2021/01/09 11:50:47;;;;;;;6.63;2.55;;;7.60;99.20;;;;;;5084100;28;20475;-83
2021/01/09 11:53:13;;;;;;;6.20;1.98;;;7.70;99.50;;;;;;5080789;28;20035;-84
2021/01/09 11:55:38;;;;;;;4.78;1.63;;;7.80;99.90;;;;;;5044693;28;20021;-83
2021/01/09 11:58:04;;;;;;;3.65;2.13;;;7.80;99.90;;;;;;5047628;28;20017;-83
2021/01/09 12:00:29;;;;;;;5.65;2.10;;;7.70;99.90;;;;;;5057197;28;20054;-84
2021/01/09 12:02:55;;;;;;;3.95;1.27;;;7.50;99.90;;;;;;5057521;28;20115;-84
2021/01/09 12:05:20;;;;;;;2.45;1.17;;;7.20;99.90;;;;;;5075133;28;20103;-83
2021/01/09 12:07:46;;;;;;;4.43;1.48;;;7.10;99.90;;;;;;5057852;28;20028;-83
2021/01/09 12:10:11;;;;;;;4.68;2.30;;;7.50;99.90;;;;;;5057148;28;20040;-84
2021/01/09 12:12:37;;;;;;;6.07;2.60;;;7.80;99.90;;;;;;5057207;28;20032;-84
2021/01/09 12:15:04;;;;;;;4.55;2.08;;;7.80;99.30;;;;;;5056942;28;20476;-83
2021/01/09 12:17:30;;;;;;;6.68;2.38;;;7.60;99.30;;;;;;5071859;28;20083;-83
2021/01/09 12:19:55;;;;;;;3.95;2.30;;;7.60;99.50;;;;;;5064288;28;20028;-83
2021/01/09 12:22:25;;;;;;;4.03;1.80;;;7.60;98.90;;;;;;5047712;28;20012;-84
2021/01/09 12:24:50;;;;;;;5.53;1.90;;;7.40;98.80;;;;;;5040321;28;20017;-83
2021/01/09 12:27:16;;;;;;;5.22;2.30;;;7.10;99.00;;;;;;5063003;28;20031;-83
2021/01/09 12:29:42;;;;;;;6.00;2.40;;;6.90;99.40;;;;;;5065122;28;20025;-83
2021/01/09 12:32:07;;;;;;;3.67;1.80;;;7.10;99.60;;;;;;5045373;28;20024;-84
2021/01/09 12:34:33;;;;;;;6.38;2.40;;;7.40;98.80;;;;;;5046210;28;20025;-84
2021/01/09 12:36:58;;;;;;;5.72;2.72;;;7.20;98.60;;;;;;5065980;28;20025;-84
2021/01/09 12:39:24;;;;;;;6.32;2.30;;;7.10;98.60;;;;;;5043588;28;20021;-84
2021/01/09 12:41:52;;;;;;;6.18;3.25;;;7.10;99.00;;;;;;5041429;28;20067;-84
2021/01/09 12:44:18;;;;;;;7.72;2.92;;;7.00;98.70;;;;;;5044264;28;20037;-84
2021/01/09 12:46:48;;;;;;;5.68;2.75;;;6.80;98.80;;;;;;5063252;28;20492;-84
2021/01/09 12:49:18;;;;;;;;;;;6.90;99.20;;;;;;5057086;28;20488;-84
2021/01/09 12:51:44;;;;;;;8.73;3.45;;;7.00;99.60;;;;;;5056297;28;19904;-84
2021/01/09 12:54:10;;;;;;;5.63;3.05;;;7.20;99.60;;;;;;5071941;28;20055;-84